sensor_id;sensor_type;location;lat;lon;timestamp;P1;durP1;ratioP1;P2;durP2;ratioP2
54823;SDS011;40724;53.196;5.980;2023-09-19T00:01:13;5.90;;;1.63;;
54823;SDS011;40724;53.196;5.980;2023-09-19T00:03:39;3.20;;;1.83;;
54823;SDS011;40724;53.196;5.980;2023-09-19T00:06:07;4.47;;;1.63;;
54823;SDS011;40724;53.196;5.980;2023-09-19T00:08:33;3.85;;;1.65;;
54823;SDS011;40724;53.196;5.980;2023-09-19T00:10:59;5.65;;;2.13;;
54823;SDS011;40724;53.196;5.980;2023-09-19T00:13:31;4.53;;;2.20;;
54823;SDS011;40724;53.196;5.980;2023-09-19T00:15:57;6.32;;;1.70;;
54823;SDS011;40724;53.196;5.980;2023-09-19T00:18:24;4.97;;;2.13;;
54823;SDS011;40724;53.196;5.980;2023-09-19T00:20:57;7.07;;;1.98;;
54823;SDS011;40724;53.196;5.980;2023-09-19T00:23:23;3.75;;;1.80;;
54823;SDS011;40724;53.196;5.980;2023-09-19T00:25:50;4.45;;;1.70;;
54823;SDS011;40724;53.196;5.980;2023-09-19T00:28:16;4.72;;;2.03;;
54823;SDS011;40724;53.196;5.980;2023-09-19T00:30:43;5.22;;;1.98;;
54823;SDS011;40724;53.196;5.980;2023-09-19T00:33:10;4.38;;;2.13;;
54823;SDS011;40724;53.196;5.980;2023-09-19T00:35:46;6.28;;;1.98;;
54823;SDS011;40724;53.196;5.980;2023-09-19T00:38:12;3.85;;;1.67;;
54823;SDS011;40724;53.196;5.980;2023-09-19T00:40:43;4.53;;;2.00;;
54823;SDS011;40724;53.196;5.980;2023-09-19T00:43:09;6.63;;;2.40;;
54823;SDS011;40724;53.196;5.980;2023-09-19T00:45:36;7.00;;;2.08;;
54823;SDS011;40724;53.196;5.980;2023-09-19T00:48:07;4.35;;;2.28;;
54823;SDS011;40724;53.196;5.980;2023-09-19T00:50:34;5.82;;;2.15;;
54823;SDS011;40724;53.196;5.980;2023-09-19T00:53:01;6.07;;;2.28;;
54823;SDS011;40724;53.196;5.980;2023-09-19T00:55:32;6.05;;;2.03;;
54823;SDS011;40724;53.196;5.980;2023-09-19T00:57:59;5.00;;;1.70;;
54823;SDS011;40724;53.196;5.980;2023-09-19T01:00:26;5.15;;;1.88;;
54823;SDS011;40724;53.196;5.980;2023-09-19T01:02:52;6.35;;;2.13;;
54823;SDS011;40724;53.196;5.980;2023-09-19T01:05:18;3.20;;;1.70;;
54823;SDS011;40724;53.196;5.980;2023-09-19T01:07:44;5.65;;;1.95;;
54823;SDS011;40724;53.196;5.980;2023-09-19T01:10:12;4.00;;;1.80;;
54823;SDS011;40724;53.196;5.980;2023-09-19T01:15:12;4.47;;;1.88;;
54823;SDS011;40724;53.196;5.980;2023-09-19T01:18:03;8.55;;;2.55;;
54823;SDS011;40724;53.196;5.980;2023-09-19T01:23:15;4.85;;;1.80;;
54823;SDS011;40724;53.196;5.980;2023-09-19T01:26:02;7.32;;;2.03;;
54823;SDS011;40724;53.196;5.980;2023-09-19T01:31:22;5.60;;;1.55;;
54823;SDS011;40724;53.196;5.980;2023-09-19T01:33:53;4.20;;;2.17;;
54823;SDS011;40724;53.196;5.980;2023-09-19T01:36:24;6.95;;;2.10;;
54823;SDS011;40724;53.196;5.980;2023-09-19T01:38:51;7.03;;;2.50;;
54823;SDS011;40724;53.196;5.980;2023-09-19T01:41:25;5.10;;;1.60;;
54823;SDS011;40724;53.196;5.980;2023-09-19T01:43:52;6.78;;;1.95;;
54823;SDS011;40724;53.196;5.980;2023-09-19T01:46:21;5.07;;;1.50;;
54823;SDS011;40724;53.196;5.980;2023-09-19T01:51:22;4.38;;;2.00;;
54823;SDS011;40724;53.196;5.980;2023-09-19T01:53:53;7.32;;;2.00;;
54823;SDS011;40724;53.196;5.980;2023-09-19T01:56:27;5.65;;;2.40;;
54823;SDS011;40724;53.196;5.980;2023-09-19T01:58:58;3.35;;;1.95;;
54823;SDS011;40724;53.196;5.980;2023-09-19T02:01:25;6.00;;;2.10;;
54823;SDS011;40724;53.196;5.980;2023-09-19T02:03:51;6.10;;;2.10;;
54823;SDS011;40724;53.196;5.980;2023-09-19T02:06:18;5.65;;;2.30;;
54823;SDS011;40724;53.196;5.980;2023-09-19T02:08:46;4.15;;;1.92;;
54823;SDS011;40724;53.196;5.980;2023-09-19T02:11:12;8.18;;;1.90;;
54823;SDS011;40724;53.196;5.980;2023-09-19T02:13:39;3.95;;;1.90;;
54823;SDS011;40724;53.196;5.980;2023-09-19T02:16:06;5.25;;;2.03;;
54823;SDS011;40724;53.196;5.980;2023-09-19T02:18:32;4.90;;;1.98;;
54823;SDS011;40724;53.196;5.980;2023-09-19T02:21:03;5.18;;;1.83;;
54823;SDS011;40724;53.196;5.980;2023-09-19T02:23:29;7.43;;;2.20;;
54823;SDS011;40724;53.196;5.980;2023-09-19T02:25:56;4.85;;;2.40;;
54823;SDS011;40724;53.196;5.980;2023-09-19T02:28:26;5.63;;;2.50;;
54823;SDS011;40724;53.196;5.980;2023-09-19T02:30:55;5.78;;;2.53;;
54823;SDS011;40724;53.196;5.980;2023-09-19T02:33:22;5.65;;;2.65;;
54823;SDS011;40724;53.196;5.980;2023-09-19T02:35:48;8.05;;;2.35;;
54823;SDS011;40724;53.196;5.980;2023-09-19T02:38:14;5.63;;;1.80;;
54823;SDS011;40724;53.196;5.980;2023-09-19T02:40:43;4.85;;;2.17;;
54823;SDS011;40724;53.196;5.980;2023-09-19T02:43:09;4.95;;;2.13;;
54823;SDS011;40724;53.196;5.980;2023-09-19T02:45:35;4.75;;;2.17;;
54823;SDS011;40724;53.196;5.980;2023-09-19T02:48:02;5.03;;;2.08;;
54823;SDS011;40724;53.196;5.980;2023-09-19T02:50:28;5.93;;;1.73;;
54823;SDS011;40724;53.196;5.980;2023-09-19T02:52:54;7.30;;;1.83;;
54823;SDS011;40724;53.196;5.980;2023-09-19T02:55:20;3.95;;;1.60;;
54823;SDS011;40724;53.196;5.980;2023-09-19T03:00:13;3.83;;;1.88;;
54823;SDS011;40724;53.196;5.980;2023-09-19T03:02:39;4.93;;;2.00;;
54823;SDS011;40724;53.196;5.980;2023-09-19T03:05:06;6.07;;;2.00;;
54823;SDS011;40724;53.196;5.980;2023-09-19T03:07:32;8.10;;;1.67;;
54823;SDS011;40724;53.196;5.980;2023-09-19T03:09:59;3.22;;;1.63;;
54823;SDS011;40724;53.196;5.980;2023-09-19T03:12:26;6.65;;;2.42;;
54823;SDS011;40724;53.196;5.980;2023-09-19T03:14:52;4.57;;;2.28;;
54823;SDS011;40724;53.196;5.980;2023-09-19T03:17:18;6.57;;;2.08;;
54823;SDS011;40724;53.196;5.980;2023-09-19T03:19:45;3.20;;;1.67;;
54823;SDS011;40724;53.196;5.980;2023-09-19T03:22:12;8.43;;;2.60;;
54823;SDS011;40724;53.196;5.980;2023-09-19T03:24:39;3.38;;;1.80;;
54823;SDS011;40724;53.196;5.980;2023-09-19T03:27:05;5.10;;;1.70;;
54823;SDS011;40724;53.196;5.980;2023-09-19T03:29:31;4.55;;;1.98;;
54823;SDS011;40724;53.196;5.980;2023-09-19T03:31:57;6.05;;;2.05;;
54823;SDS011;40724;53.196;5.980;2023-09-19T03:34:23;5.50;;;1.65;;
54823;SDS011;40724;53.196;5.980;2023-09-19T03:36:49;8.55;;;2.22;;
54823;SDS011;40724;53.196;5.980;2023-09-19T03:39:16;5.13;;;1.52;;
54823;SDS011;40724;53.196;5.980;2023-09-19T03:41:42;4.13;;;2.20;;
54823;SDS011;40724;53.196;5.980;2023-09-19T03:44:08;5.53;;;1.80;;
54823;SDS011;40724;53.196;5.980;2023-09-19T03:46:34;3.58;;;2.33;;
54823;SDS011;40724;53.196;5.980;2023-09-19T03:49:01;4.90;;;1.88;;
54823;SDS011;40724;53.196;5.980;2023-09-19T03:51:27;4.88;;;2.13;;
54823;SDS011;40724;53.196;5.980;2023-09-19T03:53:54;4.20;;;1.65;;
54823;SDS011;40724;53.196;5.980;2023-09-19T03:56:21;4.32;;;2.50;;
54823;SDS011;40724;53.196;5.980;2023-09-19T03:58:47;5.35;;;2.13;;
54823;SDS011;40724;53.196;5.980;2023-09-19T04:01:13;4.07;;;1.88;;
54823;SDS011;40724;53.196;5.980;2023-09-19T04:03:41;2.97;;;1.70;;
54823;SDS011;40724;53.196;5.980;2023-09-19T04:06:12;3.53;;;1.85;;
54823;SDS011;40724;53.196;5.980;2023-09-19T04:08:38;5.28;;;2.08;;
54823;SDS011;40724;53.196;5.980;2023-09-19T04:11:04;7.15;;;1.60;;
54823;SDS011;40724;53.196;5.980;2023-09-19T04:13:30;3.70;;;1.60;;
54823;SDS011;40724;53.196;5.980;2023-09-19T04:15:57;6.80;;;2.08;;
54823;SDS011;40724;53.196;5.980;2023-09-19T04:18:23;3.58;;;1.73;;
54823;SDS011;40724;53.196;5.980;2023-09-19T04:20:49;4.53;;;1.73;;
54823;SDS011;40724;53.196;5.980;2023-09-19T04:23:16;3.60;;;1.85;;
54823;SDS011;40724;53.196;5.980;2023-09-19T04:25:42;6.30;;;1.70;;
54823;SDS011;40724;53.196;5.980;2023-09-19T04:28:08;5.05;;;1.77;;
54823;SDS011;40724;53.196;5.980;2023-09-19T04:30:36;3.80;;;2.00;;
54823;SDS011;40724;53.196;5.980;2023-09-19T04:33:03;3.67;;;1.92;;
54823;SDS011;40724;53.196;5.980;2023-09-19T04:35:30;3.28;;;1.83;;
54823;SDS011;40724;53.196;5.980;2023-09-19T04:37:56;5.85;;;1.92;;
54823;SDS011;40724;53.196;5.980;2023-09-19T04:40:22;5.35;;;2.00;;
54823;SDS011;40724;53.196;5.980;2023-09-19T04:42:57;5.35;;;2.10;;
54823;SDS011;40724;53.196;5.980;2023-09-19T04:45:24;6.63;;;2.08;;
54823;SDS011;40724;53.196;5.980;2023-09-19T04:47:51;4.68;;;2.10;;
54823;SDS011;40724;53.196;5.980;2023-09-19T04:50:18;10.20;;;2.20;;
54823;SDS011;40724;53.196;5.980;2023-09-19T04:52:45;8.07;;;2.38;;
54823;SDS011;40724;53.196;5.980;2023-09-19T04:55:14;6.05;;;2.40;;
54823;SDS011;40724;53.196;5.980;2023-09-19T04:57:44;5.07;;;2.25;;
54823;SDS011;40724;53.196;5.980;2023-09-19T05:00:13;4.05;;;2.15;;
54823;SDS011;40724;53.196;5.980;2023-09-19T05:02:40;5.00;;;2.67;;
54823;SDS011;40724;53.196;5.980;2023-09-19T05:05:10;4.18;;;1.77;;
54823;SDS011;40724;53.196;5.980;2023-09-19T05:07:37;7.43;;;2.03;;
54823;SDS011;40724;53.196;5.980;2023-09-19T05:10:04;6.45;;;2.00;;
54823;SDS011;40724;53.196;5.980;2023-09-19T05:12:34;5.72;;;2.08;;
54823;SDS011;40724;53.196;5.980;2023-09-19T05:15:01;4.38;;;1.63;;
54823;SDS011;40724;53.196;5.980;2023-09-19T05:17:28;5.25;;;1.70;;
54823;SDS011;40724;53.196;5.980;2023-09-19T05:19:54;5.05;;;2.28;;
54823;SDS011;40724;53.196;5.980;2023-09-19T05:22:20;3.72;;;1.55;;
54823;SDS011;40724;53.196;5.980;2023-09-19T05:24:46;4.75;;;1.52;;
54823;SDS011;40724;53.196;5.980;2023-09-19T05:27:14;5.22;;;2.15;;
54823;SDS011;40724;53.196;5.980;2023-09-19T05:29:44;3.13;;;1.70;;
54823;SDS011;40724;53.196;5.980;2023-09-19T05:32:11;8.00;;;2.40;;
54823;SDS011;40724;53.196;5.980;2023-09-19T05:34:37;5.25;;;1.50;;
54823;SDS011;40724;53.196;5.980;2023-09-19T05:37:04;6.55;;;1.67;;
54823;SDS011;40724;53.196;5.980;2023-09-19T05:39:33;4.35;;;1.90;;
54823;SDS011;40724;53.196;5.980;2023-09-19T05:42:05;6.80;;;1.93;;
54823;SDS011;40724;53.196;5.980;2023-09-19T05:44:33;4.95;;;2.05;;
54823;SDS011;40724;53.196;5.980;2023-09-19T05:46:59;4.50;;;2.28;;
54823;SDS011;40724;53.196;5.980;2023-09-19T05:49:25;6.10;;;1.80;;
54823;SDS011;40724;53.196;5.980;2023-09-19T05:51:52;5.35;;;2.13;;
54823;SDS011;40724;53.196;5.980;2023-09-19T05:54:20;7.05;;;2.53;;
54823;SDS011;40724;53.196;5.980;2023-09-19T05:56:47;5.82;;;2.53;;
54823;SDS011;40724;53.196;5.980;2023-09-19T05:59:14;10.13;;;2.58;;
54823;SDS011;40724;53.196;5.980;2023-09-19T06:01:43;7.43;;;2.10;;
54823;SDS011;40724;53.196;5.980;2023-09-19T06:04:09;3.00;;;1.52;;
54823;SDS011;40724;53.196;5.980;2023-09-19T06:06:35;7.57;;;1.95;;
54823;SDS011;40724;53.196;5.980;2023-09-19T06:09:06;5.53;;;2.33;;
54823;SDS011;40724;53.196;5.980;2023-09-19T06:11:36;6.78;;;1.85;;
54823;SDS011;40724;53.196;5.980;2023-09-19T06:14:02;4.72;;;1.63;;
54823;SDS011;40724;53.196;5.980;2023-09-19T06:16:29;4.05;;;2.17;;
54823;SDS011;40724;53.196;5.980;2023-09-19T06:18:57;7.65;;;2.50;;
54823;SDS011;40724;53.196;5.980;2023-09-19T06:21:25;4.53;;;2.15;;
54823;SDS011;40724;53.196;5.980;2023-09-19T06:23:52;8.25;;;2.20;;
54823;SDS011;40724;53.196;5.980;2023-09-19T06:26:18;7.55;;;2.00;;
54823;SDS011;40724;53.196;5.980;2023-09-19T06:28:44;6.38;;;2.17;;
54823;SDS011;40724;53.196;5.980;2023-09-19T06:31:11;5.85;;;1.85;;
54823;SDS011;40724;53.196;5.980;2023-09-19T06:33:38;5.10;;;2.03;;
54823;SDS011;40724;53.196;5.980;2023-09-19T06:36:07;6.53;;;2.33;;
54823;SDS011;40724;53.196;5.980;2023-09-19T06:38:33;6.53;;;2.03;;
54823;SDS011;40724;53.196;5.980;2023-09-19T06:41:01;6.13;;;2.17;;
54823;SDS011;40724;53.196;5.980;2023-09-19T06:43:32;10.95;;;3.03;;
54823;SDS011;40724;53.196;5.980;2023-09-19T06:45:59;7.50;;;2.45;;
54823;SDS011;40724;53.196;5.980;2023-09-19T06:48:25;5.53;;;1.95;;
54823;SDS011;40724;53.196;5.980;2023-09-19T06:50:55;8.43;;;2.17;;
54823;SDS011;40724;53.196;5.980;2023-09-19T06:53:23;7.15;;;3.20;;
54823;SDS011;40724;53.196;5.980;2023-09-19T06:55:50;7.18;;;1.75;;
54823;SDS011;40724;53.196;5.980;2023-09-19T06:58:16;6.57;;;2.08;;
54823;SDS011;40724;53.196;5.980;2023-09-19T07:00:42;5.47;;;1.95;;
54823;SDS011;40724;53.196;5.980;2023-09-19T07:03:09;3.83;;;1.77;;
54823;SDS011;40724;53.196;5.980;2023-09-19T07:05:39;4.18;;;1.95;;
54823;SDS011;40724;53.196;5.980;2023-09-19T07:08:05;4.93;;;1.92;;
54823;SDS011;40724;53.196;5.980;2023-09-19T07:10:32;7.72;;;2.83;;
54823;SDS011;40724;53.196;5.980;2023-09-19T07:12:59;7.80;;;2.53;;
54823;SDS011;40724;53.196;5.980;2023-09-19T07:15:27;4.55;;;2.08;;
54823;SDS011;40724;53.196;5.980;2023-09-19T07:17:54;7.72;;;2.30;;
54823;SDS011;40724;53.196;5.980;2023-09-19T07:20:22;4.40;;;1.85;;
54823;SDS011;40724;53.196;5.980;2023-09-19T07:22:50;9.00;;;2.47;;
54823;SDS011;40724;53.196;5.980;2023-09-19T07:25:16;3.67;;;1.92;;
54823;SDS011;40724;53.196;5.980;2023-09-19T07:27:42;4.93;;;2.00;;
54823;SDS011;40724;53.196;5.980;2023-09-19T07:30:10;6.15;;;2.13;;
54823;SDS011;40724;53.196;5.980;2023-09-19T07:32:37;5.00;;;2.05;;
54823;SDS011;40724;53.196;5.980;2023-09-19T07:35:03;10.68;;;2.38;;
54823;SDS011;40724;53.196;5.980;2023-09-19T07:37:31;6.88;;;1.92;;
54823;SDS011;40724;53.196;5.980;2023-09-19T07:40:04;5.32;;;1.85;;
54823;SDS011;40724;53.196;5.980;2023-09-19T07:42:34;3.70;;;1.75;;
54823;SDS011;40724;53.196;5.980;2023-09-19T07:45:04;6.20;;;2.30;;
54823;SDS011;40724;53.196;5.980;2023-09-19T07:47:30;6.47;;;2.28;;
54823;SDS011;40724;53.196;5.980;2023-09-19T07:49:58;5.63;;;3.22;;
54823;SDS011;40724;53.196;5.980;2023-09-19T07:52:24;8.52;;;2.72;;
54823;SDS011;40724;53.196;5.980;2023-09-19T07:54:53;3.53;;;1.73;;
54823;SDS011;40724;53.196;5.980;2023-09-19T07:57:19;5.45;;;2.35;;
54823;SDS011;40724;53.196;5.980;2023-09-19T07:59:45;5.20;;;1.60;;
54823;SDS011;40724;53.196;5.980;2023-09-19T08:02:11;7.30;;;2.40;;
54823;SDS011;40724;53.196;5.980;2023-09-19T08:04:44;9.57;;;3.38;;
54823;SDS011;40724;53.196;5.980;2023-09-19T08:07:14;6.38;;;3.05;;
54823;SDS011;40724;53.196;5.980;2023-09-19T08:09:40;10.07;;;2.30;;
54823;SDS011;40724;53.196;5.980;2023-09-19T08:12:06;5.20;;;2.10;;
54823;SDS011;40724;53.196;5.980;2023-09-19T08:14:35;5.45;;;2.15;;
54823;SDS011;40724;53.196;5.980;2023-09-19T08:17:02;7.03;;;2.42;;
54823;SDS011;40724;53.196;5.980;2023-09-19T08:19:30;5.10;;;2.40;;
54823;SDS011;40724;53.196;5.980;2023-09-19T08:21:57;5.72;;;2.30;;
54823;SDS011;40724;53.196;5.980;2023-09-19T08:24:29;6.22;;;2.00;;
54823;SDS011;40724;53.196;5.980;2023-09-19T08:26:56;4.57;;;2.65;;
54823;SDS011;40724;53.196;5.980;2023-09-19T08:29:22;8.05;;;2.33;;
54823;SDS011;40724;53.196;5.980;2023-09-19T08:31:55;6.35;;;2.45;;
54823;SDS011;40724;53.196;5.980;2023-09-19T08:34:24;6.70;;;2.70;;
54823;SDS011;40724;53.196;5.980;2023-09-19T08:36:50;8.20;;;2.38;;
54823;SDS011;40724;53.196;5.980;2023-09-19T08:39:18;4.55;;;1.70;;
54823;SDS011;40724;53.196;5.980;2023-09-19T08:41:44;7.10;;;2.33;;
54823;SDS011;40724;53.196;5.980;2023-09-19T08:44:10;8.63;;;2.65;;
54823;SDS011;40724;53.196;5.980;2023-09-19T08:46:36;6.50;;;2.22;;
54823;SDS011;40724;53.196;5.980;2023-09-19T08:49:19;8.70;;;2.85;;
54823;SDS011;40724;53.196;5.980;2023-09-19T08:52:05;6.72;;;2.47;;
54823;SDS011;40724;53.196;5.980;2023-09-19T08:54:38;7.45;;;2.88;;
54823;SDS011;40724;53.196;5.980;2023-09-19T08:57:07;8.88;;;2.80;;
54823;SDS011;40724;53.196;5.980;2023-09-19T08:59:39;6.63;;;2.75;;
54823;SDS011;40724;53.196;5.980;2023-09-19T09:02:10;9.02;;;2.00;;
54823;SDS011;40724;53.196;5.980;2023-09-19T09:04:39;5.70;;;2.22;;
54823;SDS011;40724;53.196;5.980;2023-09-19T09:07:09;5.65;;;2.60;;
54823;SDS011;40724;53.196;5.980;2023-09-19T09:09:36;6.45;;;2.72;;
54823;SDS011;40724;53.196;5.980;2023-09-19T09:12:03;5.70;;;2.17;;
54823;SDS011;40724;53.196;5.980;2023-09-19T09:14:30;8.05;;;2.80;;
54823;SDS011;40724;53.196;5.980;2023-09-19T09:16:56;5.43;;;2.70;;
54823;SDS011;40724;53.196;5.980;2023-09-19T09:19:24;4.28;;;2.22;;
54823;SDS011;40724;53.196;5.980;2023-09-19T09:21:51;8.45;;;3.10;;
54823;SDS011;40724;53.196;5.980;2023-09-19T09:24:29;9.27;;;2.72;;
54823;SDS011;40724;53.196;5.980;2023-09-19T09:26:58;7.95;;;3.28;;
54823;SDS011;40724;53.196;5.980;2023-09-19T09:29:41;5.63;;;2.63;;
54823;SDS011;40724;53.196;5.980;2023-09-19T09:34:57;4.18;;;2.03;;
54823;SDS011;40724;53.196;5.980;2023-09-19T09:37:24;5.63;;;2.72;;
54823;SDS011;40724;53.196;5.980;2023-09-19T09:42:30;10.38;;;2.67;;
54823;SDS011;40724;53.196;5.980;2023-09-19T09:45:17;4.80;;;2.40;;
54823;SDS011;40724;53.196;5.980;2023-09-19T09:47:45;9.23;;;2.70;;
54823;SDS011;40724;53.196;5.980;2023-09-19T09:50:32;6.53;;;2.72;;
54823;SDS011;40724;53.196;5.980;2023-09-19T09:53:23;10.27;;;2.63;;
54823;SDS011;40724;53.196;5.980;2023-09-19T09:58:24;6.78;;;2.45;;
54823;SDS011;40724;53.196;5.980;2023-09-19T10:00:57;6.32;;;2.75;;
54823;SDS011;40724;53.196;5.980;2023-09-19T10:03:31;7.20;;;2.40;;
54823;SDS011;40724;53.196;5.980;2023-09-19T10:05:59;7.80;;;2.90;;
54823;SDS011;40724;53.196;5.980;2023-09-19T10:08:34;6.38;;;2.50;;
54823;SDS011;40724;53.196;5.980;2023-09-19T10:11:06;10.93;;;4.22;;
54823;SDS011;40724;53.196;5.980;2023-09-19T10:13:40;6.60;;;2.97;;
54823;SDS011;40724;53.196;5.980;2023-09-19T10:16:08;12.45;;;3.30;;
54823;SDS011;40724;53.196;5.980;2023-09-19T10:18:36;8.70;;;3.25;;
54823;SDS011;40724;53.196;5.980;2023-09-19T10:21:04;11.98;;;3.60;;
54823;SDS011;40724;53.196;5.980;2023-09-19T10:23:33;10.48;;;3.25;;
54823;SDS011;40724;53.196;5.980;2023-09-19T10:26:02;9.02;;;2.70;;
54823;SDS011;40724;53.196;5.980;2023-09-19T10:28:30;6.63;;;2.53;;
54823;SDS011;40724;53.196;5.980;2023-09-19T10:30:56;9.13;;;3.45;;
54823;SDS011;40724;53.196;5.980;2023-09-19T10:33:23;9.25;;;3.42;;
54823;SDS011;40724;53.196;5.980;2023-09-19T10:35:54;10.63;;;3.40;;
54823;SDS011;40724;53.196;5.980;2023-09-19T10:38:23;7.93;;;2.70;;
54823;SDS011;40724;53.196;5.980;2023-09-19T10:40:50;5.43;;;2.83;;
54823;SDS011;40724;53.196;5.980;2023-09-19T10:43:17;6.43;;;3.17;;
54823;SDS011;40724;53.196;5.980;2023-09-19T10:45:44;7.05;;;2.97;;
54823;SDS011;40724;53.196;5.980;2023-09-19T10:48:11;10.05;;;3.67;;
54823;SDS011;40724;53.196;5.980;2023-09-19T10:53:07;10.48;;;3.35;;
54823;SDS011;40724;53.196;5.980;2023-09-19T10:55:36;13.13;;;4.35;;
54823;SDS011;40724;53.196;5.980;2023-09-19T10:58:02;10.68;;;3.40;;
54823;SDS011;40724;53.196;5.980;2023-09-19T11:03:39;6.28;;;2.85;;
54823;SDS011;40724;53.196;5.980;2023-09-19T11:06:10;10.88;;;3.85;;
54823;SDS011;40724;53.196;5.980;2023-09-19T11:14:13;7.03;;;2.92;;
54823;SDS011;40724;53.196;5.980;2023-09-19T11:16:39;9.32;;;3.40;;
54823;SDS011;40724;53.196;5.980;2023-09-19T11:19:05;11.90;;;4.15;;
54823;SDS011;40724;53.196;5.980;2023-09-19T11:26:48;5.75;;;2.83;;
54823;SDS011;40724;53.196;5.980;2023-09-19T11:29:27;7.68;;;3.28;;
54823;SDS011;40724;53.196;5.980;2023-09-19T11:31:54;14.45;;;4.25;;
54823;SDS011;40724;53.196;5.980;2023-09-19T11:39:40;12.30;;;4.35;;
54823;SDS011;40724;53.196;5.980;2023-09-19T11:44:53;11.68;;;3.65;;
54823;SDS011;40724;53.196;5.980;2023-09-19T11:47:21;10.73;;;3.72;;
54823;SDS011;40724;53.196;5.980;2023-09-19T11:49:50;12.05;;;3.83;;
54823;SDS011;40724;53.196;5.980;2023-09-19T11:52:21;8.13;;;3.65;;
54823;SDS011;40724;53.196;5.980;2023-09-19T11:54:55;10.65;;;3.78;;
54823;SDS011;40724;53.196;5.980;2023-09-19T11:57:22;15.70;;;5.50;;
54823;SDS011;40724;53.196;5.980;2023-09-19T11:59:48;9.15;;;3.50;;
54823;SDS011;40724;53.196;5.980;2023-09-19T12:02:27;7.18;;;3.15;;
54823;SDS011;40724;53.196;5.980;2023-09-19T12:05:04;6.45;;;3.63;;
54823;SDS011;40724;53.196;5.980;2023-09-19T12:07:30;8.75;;;2.88;;
54823;SDS011;40724;53.196;5.980;2023-09-19T12:10:12;9.10;;;3.00;;
54823;SDS011;40724;53.196;5.980;2023-09-19T12:12:39;8.77;;;3.65;;
54823;SDS011;40724;53.196;5.980;2023-09-19T12:15:07;9.20;;;3.70;;
54823;SDS011;40724;53.196;5.980;2023-09-19T12:17:36;9.60;;;2.65;;
54823;SDS011;40724;53.196;5.980;2023-09-19T12:20:02;4.78;;;2.70;;
54823;SDS011;40724;53.196;5.980;2023-09-19T12:22:54;12.93;;;2.85;;
54823;SDS011;40724;53.196;5.980;2023-09-19T12:25:20;5.70;;;2.60;;
54823;SDS011;40724;53.196;5.980;2023-09-19T12:27:47;8.93;;;3.00;;
54823;SDS011;40724;53.196;5.980;2023-09-19T12:30:26;7.68;;;2.80;;
54823;SDS011;40724;53.196;5.980;2023-09-19T12:32:53;7.35;;;2.78;;
54823;SDS011;40724;53.196;5.980;2023-09-19T12:35:30;7.13;;;2.17;;
54823;SDS011;40724;53.196;5.980;2023-09-19T12:38:00;5.05;;;2.15;;
54823;SDS011;40724;53.196;5.980;2023-09-19T12:40:28;7.75;;;2.55;;
54823;SDS011;40724;53.196;5.980;2023-09-19T12:42:58;6.75;;;2.38;;
54823;SDS011;40724;53.196;5.980;2023-09-19T12:45:25;9.88;;;3.60;;
54823;SDS011;40724;53.196;5.980;2023-09-19T12:53:33;6.22;;;2.45;;
54823;SDS011;40724;53.196;5.980;2023-09-19T12:56:03;7.25;;;2.85;;
54823;SDS011;40724;53.196;5.980;2023-09-19T12:58:34;7.07;;;2.30;;
54823;SDS011;40724;53.196;5.980;2023-09-19T13:01:15;4.72;;;2.85;;
54823;SDS011;40724;53.196;5.980;2023-09-19T13:03:41;5.75;;;2.63;;
54823;SDS011;40724;53.196;5.980;2023-09-19T13:06:07;5.38;;;2.67;;
54823;SDS011;40724;53.196;5.980;2023-09-19T13:08:35;6.80;;;2.50;;
54823;SDS011;40724;53.196;5.980;2023-09-19T13:11:07;5.82;;;2.35;;
54823;SDS011;40724;53.196;5.980;2023-09-19T13:13:47;9.95;;;2.00;;
54823;SDS011;40724;53.196;5.980;2023-09-19T13:16:18;5.15;;;2.08;;
54823;SDS011;40724;53.196;5.980;2023-09-19T13:18:51;4.10;;;2.25;;
54823;SDS011;40724;53.196;5.980;2023-09-19T13:24:21;4.70;;;2.42;;
54823;SDS011;40724;53.196;5.980;2023-09-19T13:26:51;8.38;;;2.50;;
54823;SDS011;40724;53.196;5.980;2023-09-19T13:29:16;4.70;;;1.48;;
54823;SDS011;40724;53.196;5.980;2023-09-19T13:31:50;4.05;;;1.95;;
54823;SDS011;40724;53.196;5.980;2023-09-19T13:34:18;6.25;;;2.30;;
54823;SDS011;40724;53.196;5.980;2023-09-19T13:36:45;8.00;;;2.25;;
54823;SDS011;40724;53.196;5.980;2023-09-19T13:39:15;5.00;;;1.90;;
54823;SDS011;40724;53.196;5.980;2023-09-19T13:41:41;3.75;;;2.20;;
54823;SDS011;40724;53.196;5.980;2023-09-19T13:44:11;5.97;;;2.13;;
54823;SDS011;40724;53.196;5.980;2023-09-19T13:46:37;6.22;;;2.60;;
54823;SDS011;40724;53.196;5.980;2023-09-19T13:49:03;6.25;;;2.92;;
54823;SDS011;40724;53.196;5.980;2023-09-19T13:51:30;4.43;;;2.22;;
54823;SDS011;40724;53.196;5.980;2023-09-19T13:53:56;7.22;;;2.15;;
54823;SDS011;40724;53.196;5.980;2023-09-19T13:56:22;5.63;;;1.65;;
54823;SDS011;40724;53.196;5.980;2023-09-19T13:58:49;3.45;;;1.95;;
54823;SDS011;40724;53.196;5.980;2023-09-19T14:01:14;4.53;;;1.70;;
54823;SDS011;40724;53.196;5.980;2023-09-19T14:03:42;5.95;;;2.45;;
54823;SDS011;40724;53.196;5.980;2023-09-19T14:06:18;8.88;;;2.60;;
54823;SDS011;40724;53.196;5.980;2023-09-19T14:08:44;5.35;;;2.05;;
54823;SDS011;40724;53.196;5.980;2023-09-19T14:11:13;4.65;;;2.22;;
54823;SDS011;40724;53.196;5.980;2023-09-19T14:13:42;4.45;;;1.95;;
54823;SDS011;40724;53.196;5.980;2023-09-19T14:16:13;6.65;;;2.80;;
54823;SDS011;40724;53.196;5.980;2023-09-19T14:18:41;4.95;;;2.40;;
54823;SDS011;40724;53.196;5.980;2023-09-19T14:21:07;5.18;;;2.03;;
54823;SDS011;40724;53.196;5.980;2023-09-19T14:23:39;5.45;;;2.03;;
54823;SDS011;40724;53.196;5.980;2023-09-19T14:26:06;6.78;;;2.65;;
54823;SDS011;40724;53.196;5.980;2023-09-19T14:28:32;5.38;;;2.70;;
54823;SDS011;40724;53.196;5.980;2023-09-19T14:31:08;4.53;;;1.75;;
54823;SDS011;40724;53.196;5.980;2023-09-19T14:33:34;6.55;;;2.60;;
54823;SDS011;40724;53.196;5.980;2023-09-19T14:36:04;8.00;;;2.65;;
54823;SDS011;40724;53.196;5.980;2023-09-19T14:38:34;6.57;;;2.50;;
54823;SDS011;40724;53.196;5.980;2023-09-19T14:41:01;7.38;;;2.22;;
54823;SDS011;40724;53.196;5.980;2023-09-19T14:43:27;6.30;;;1.80;;
54823;SDS011;40724;53.196;5.980;2023-09-19T14:46:04;8.68;;;2.83;;
54823;SDS011;40724;53.196;5.980;2023-09-19T14:48:32;5.97;;;2.30;;
54823;SDS011;40724;53.196;5.980;2023-09-19T14:51:02;6.13;;;2.95;;
54823;SDS011;40724;53.196;5.980;2023-09-19T14:53:29;8.85;;;3.50;;
54823;SDS011;40724;53.196;5.980;2023-09-19T14:55:55;6.38;;;3.17;;
54823;SDS011;40724;53.196;5.980;2023-09-19T14:58:21;10.93;;;3.00;;
54823;SDS011;40724;53.196;5.980;2023-09-19T15:00:47;7.93;;;3.28;;
54823;SDS011;40724;53.196;5.980;2023-09-19T15:03:14;5.47;;;2.80;;
54823;SDS011;40724;53.196;5.980;2023-09-19T15:05:40;5.10;;;2.78;;
54823;SDS011;40724;53.196;5.980;2023-09-19T15:08:06;3.90;;;2.35;;
54823;SDS011;40724;53.196;5.980;2023-09-19T15:10:32;7.20;;;3.15;;
54823;SDS011;40724;53.196;5.980;2023-09-19T15:12:58;6.28;;;2.55;;
54823;SDS011;40724;53.196;5.980;2023-09-19T15:15:24;6.93;;;2.85;;
54823;SDS011;40724;53.196;5.980;2023-09-19T15:17:51;12.05;;;4.80;;
54823;SDS011;40724;53.196;5.980;2023-09-19T15:20:17;6.78;;;3.08;;
54823;SDS011;40724;53.196;5.980;2023-09-19T15:22:43;6.88;;;2.60;;
54823;SDS011;40724;53.196;5.980;2023-09-19T15:25:09;6.57;;;2.53;;
54823;SDS011;40724;53.196;5.980;2023-09-19T15:27:35;6.07;;;3.03;;
54823;SDS011;40724;53.196;5.980;2023-09-19T15:30:02;8.57;;;2.72;;
54823;SDS011;40724;53.196;5.980;2023-09-19T15:32:30;5.57;;;2.45;;
54823;SDS011;40724;53.196;5.980;2023-09-19T15:34:57;12.77;;;3.28;;
54823;SDS011;40724;53.196;5.980;2023-09-19T15:37:23;3.90;;;2.38;;
54823;SDS011;40724;53.196;5.980;2023-09-19T15:39:51;4.45;;;2.38;;
54823;SDS011;40724;53.196;5.980;2023-09-19T15:42:17;10.60;;;3.22;;
54823;SDS011;40724;53.196;5.980;2023-09-19T15:44:43;5.15;;;2.30;;
54823;SDS011;40724;53.196;5.980;2023-09-19T15:47:09;6.55;;;2.90;;